createdAt,value
2023-11-30T00:02:00.368Z,-2.02
2023-11-30T00:07:37.644Z,-2.10
2023-11-30T00:13:14.453Z,-2.16
2023-11-30T00:20:36.713Z,-2.24
2023-11-30T00:33:02.958Z,-2.41
2023-11-30T00:39:30.102Z,-2.45
2023-11-30T00:46:13.973Z,-2.49
2023-11-30T00:52:48.483Z,-2.54
2023-11-30T01:19:22.289Z,-2.94
2023-11-30T01:25:43.203Z,-2.97
2023-11-30T01:32:50.888Z,-3.06
2023-11-30T01:45:34.313Z,-3.14
2023-11-30T01:51:40.635Z,-3.17
2023-11-30T02:04:03.317Z,-3.22
2023-11-30T02:10:58.629Z,-3.33
2023-11-30T02:17:10.368Z,-3.43
2023-11-30T02:30:13.931Z,-3.58
2023-11-30T03:22:52.101Z,-3.58
2023-11-30T03:36:09.475Z,-3.55
2023-11-30T04:02:36.443Z,-4.07
2023-11-30T04:15:10.685Z,-4.37
2023-11-30T04:21:45.352Z,-4.47
2023-11-30T04:28:25.367Z,-4.61
2023-11-30T04:41:32.123Z,-4.75
2023-11-30T05:09:09.832Z,-5.07
2023-11-30T05:22:20.985Z,-5.12
2023-11-30T05:35:26.444Z,-5.21
2023-11-30T05:42:08.530Z,-5.28
2023-11-30T05:55:28.121Z,-5.16
2023-11-30T06:02:01.449Z,-5.00
2023-11-30T06:41:16.862Z,-4.43
2023-11-30T06:58:17.338Z,-4.65
2023-11-30T07:09:51.194Z,-4.56
2023-11-30T07:16:17.635Z,-4.57
2023-11-30T07:22:18.140Z,-4.45
2023-11-30T07:27:24.433Z,-4.23
2023-11-30T07:32:38.069Z,-4.08
2023-11-30T07:38:02.701Z,-3.98
2023-11-30T07:43:29.241Z,-3.87
2023-11-30T07:48:55.105Z,-3.72
2023-11-30T07:54:38.674Z,-3.55
2023-11-30T08:00:41.891Z,-3.41
2023-11-30T08:06:43.830Z,-3.27
2023-11-30T08:12:56.267Z,-3.15
2023-11-30T08:18:50.037Z,-3.11
2023-11-30T08:24:19.607Z,-3.11
2023-11-30T08:29:28.496Z,-3.10
2023-11-30T08:35:23.897Z,-3.10
2023-11-30T08:40:54.618Z,-3.09
2023-11-30T08:46:17.894Z,-3.06
2023-11-30T08:51:34.143Z,-3.00
2023-11-30T08:57:58.221Z,-2.92
2023-11-30T09:03:26.344Z,-2.80
2023-11-30T09:09:44.715Z,-2.74
2023-11-30T09:15:10.672Z,-2.64
2023-11-30T09:20:36.242Z,-2.58
2023-11-30T09:25:59.831Z,-2.53
2023-11-30T09:32:00.669Z,-2.45
2023-11-30T09:37:25.499Z,-2.33
2023-11-30T09:43:31.951Z,-2.22
2023-11-30T09:49:36.338Z,-2.12
2023-11-30T09:55:15.980Z,-2.07
2023-11-30T10:01:25.062Z,-2.20
2023-11-30T10:07:29.487Z,-2.37
2023-11-30T10:12:58.916Z,-2.48
2023-11-30T10:18:11.322Z,-2.44
2023-11-30T10:23:58.340Z,-2.28
2023-11-30T10:30:17.468Z,-2.25
2023-11-30T10:42:05.370Z,-1.97
2023-11-30T10:47:54.382Z,-1.87
2023-11-30T10:54:09.197Z,-1.89
2023-11-30T10:59:53.766Z,-1.90
2023-11-30T11:05:46.942Z,-1.89
2023-11-30T11:11:58.489Z,-1.74
2023-11-30T11:18:15.937Z,-1.71
2023-11-30T11:23:46.212Z,-1.76
2023-11-30T11:29:24.342Z,-1.72
2023-11-30T11:35:36.110Z,-1.62
2023-11-30T11:41:30.359Z,-1.58
2023-11-30T11:47:00.189Z,-1.55
2023-11-30T11:58:42.633Z,-1.45
2023-11-30T12:04:39.179Z,-1.35
2023-11-30T12:12:27.264Z,-1.21
2023-11-30T12:18:14.492Z,-0.87
2023-11-30T12:24:00.243Z,-0.78
2023-11-30T12:30:32.470Z,-0.65
2023-11-30T12:37:11.537Z,-0.66
2023-11-30T12:42:50.021Z,-0.74
2023-11-30T12:48:16.812Z,-0.77
2023-11-30T12:54:10.815Z,-0.87
2023-11-30T13:06:44.641Z,-0.49
2023-11-30T13:12:42.600Z,-0.55
2023-11-30T13:17:56.988Z,-0.81
2023-11-30T13:23:55.421Z,-0.86
2023-11-30T13:30:13.808Z,-0.87
2023-11-30T13:35:47.642Z,-1.04
2023-11-30T13:41:23.164Z,-1.16
2023-11-30T13:46:50.859Z,-1.20
2023-11-30T13:52:04.078Z,-1.17
2023-11-30T13:57:43.937Z,-1.10
2023-11-30T14:03:19.178Z,-1.17
2023-11-30T14:08:54.310Z,-1.29
2023-11-30T14:14:02.575Z,-1.52
2023-11-30T14:19:46.365Z,-1.74
2023-11-30T14:25:24.094Z,-2.04
2023-11-30T14:31:42.964Z,-2.26
2023-11-30T14:37:59.121Z,-2.52
2023-11-30T14:44:18.471Z,-2.67
2023-11-30T14:50:24.189Z,-2.72
2023-11-30T14:56:48.647Z,-2.76
2023-11-30T15:02:57.507Z,-2.79
2023-11-30T15:09:15.833Z,-2.83
2023-11-30T15:15:16.554Z,-2.72
2023-11-30T15:20:47.748Z,-2.62
2023-11-30T15:26:50.636Z,-2.57
2023-11-30T15:33:02.257Z,-2.56
2023-11-30T15:39:01.072Z,-2.51
2023-11-30T15:45:00.558Z,-2.50
2023-11-30T15:50:48.986Z,-2.50
2023-11-30T15:57:03.688Z,-2.51
2023-11-30T16:03:20.391Z,-2.55
2023-11-30T16:08:58.538Z,-2.57
2023-11-30T16:21:02.762Z,-2.82
2023-11-30T16:26:41.991Z,-2.96
2023-11-30T16:32:12.812Z,-3.06
2023-11-30T16:38:49.401Z,-3.17
2023-11-30T16:44:41.448Z,-3.30
2023-11-30T16:50:34.219Z,-3.32
2023-11-30T17:02:56.694Z,-3.07
2023-11-30T18:13:45.656Z,-2.60
2023-11-30T18:19:14.302Z,-2.56
2023-11-30T18:24:25.442Z,-2.56
2023-11-30T18:29:58.184Z,-2.57
2023-11-30T18:35:24.286Z,-2.56
2023-11-30T18:41:23.770Z,-2.63
2023-11-30T18:53:05.442Z,-2.80
2023-11-30T19:04:05.380Z,-3.08
2023-11-30T19:10:00.474Z,-3.24
2023-11-30T19:15:24.558Z,-3.37
2023-11-30T19:27:32.518Z,-3.16
2023-11-30T19:32:52.948Z,-2.95
2023-11-30T19:38:33.531Z,-2.83
2023-11-30T19:43:52.937Z,-2.81
2023-11-30T19:49:19.689Z,-2.79
2023-11-30T19:55:34.397Z,-2.85
2023-11-30T20:01:40.871Z,-2.87
2023-11-30T20:14:01.463Z,-2.86
2023-11-30T20:20:01.289Z,-2.87
2023-11-30T20:26:39.466Z,-2.86
2023-11-30T20:33:25.615Z,-2.90
2023-11-30T20:39:02.134Z,-2.92
2023-11-30T20:44:16.013Z,-2.96
2023-11-30T20:49:41.112Z,-3.04
2023-11-30T20:55:58.689Z,-3.08
2023-11-30T21:03:14.524Z,-3.21
2023-11-30T21:08:17.210Z,-3.41
2023-11-30T21:13:51.165Z,-3.56
2023-11-30T21:19:14.762Z,-3.70
2023-11-30T21:25:06.798Z,-3.93
2023-11-30T21:30:19.878Z,-4.17
2023-11-30T21:35:24.270Z,-4.33
2023-11-30T21:40:38.307Z,-4.41
2023-11-30T21:46:01.554Z,-4.38
2023-11-30T21:51:08.462Z,-4.41
2023-11-30T21:56:30.135Z,-4.14
2023-11-30T22:01:47.314Z,-3.75
2023-11-30T22:06:50.868Z,-3.57
2023-11-30T22:12:04.187Z,-3.56
2023-11-30T22:17:15.192Z,-3.78
2023-11-30T22:22:22.534Z,-4.01
2023-11-30T22:27:25.036Z,-4.11
2023-11-30T22:32:31.505Z,-4.15
2023-11-30T22:37:39.747Z,-4.17
2023-11-30T22:42:51.244Z,-4.21
2023-11-30T22:47:58.981Z,-4.29
2023-11-30T22:53:10.788Z,-4.39
2023-11-30T22:58:31.075Z,-4.51
2023-11-30T23:03:42.408Z,-4.63
2023-11-30T23:08:47.967Z,-4.65
2023-11-30T23:13:56.510Z,-4.67
2023-11-30T23:19:08.489Z,-4.70
2023-11-30T23:24:25.786Z,-4.69
2023-11-30T23:29:46.045Z,-4.72
2023-11-30T23:35:28.070Z,-4.71
2023-11-30T23:41:29.667Z,-4.73
2023-11-30T23:52:43.735Z,-4.75
2023-11-30T23:58:29.193Z,-4.78
